Time;durP1;ratioP1;P1;durP2;ratioP2;P2;SDS_P1;SDS_P2;PMS_P1;PMS_P2;Temp;Humidity;BMP_temperature;BMP_pressure;BME280_temperature;BME280_humidity;BME280_pressure;Samples;Min_cycle;Max_cycle;Signal;HPM_P1;HPM_P2
2024/02/24 00:01:17;;;;;;;17.45;9.70;;;;;;;2.02;100.00;99410.25;5065261;28;20113;-81
2024/02/24 00:03:42;;;;;;;14.27;9.60;;;;;;;1.97;100.00;99407.13;5056695;28;20036;-81
2024/02/24 00:06:07;;;;;;;18.27;9.43;;;;;;;1.89;100.00;99405.91;5054463;28;20491;-83
2024/02/24 00:08:33;;;;;;;12.90;9.50;;;;;;;1.87;100.00;99422.75;5054795;28;20511;-82
2024/02/24 00:10:58;;;;;;;16.23;10.35;;;;;;;1.88;100.00;99412.13;5054747;28;20428;-81
2024/02/24 00:13:23;;;;;;;17.65;10.50;;;;;;;1.87;100.00;99418.31;5055225;28;20036;-81
2024/02/24 00:15:49;;;;;;;16.58;10.15;;;;;;;1.87;100.00;99420.13;5053486;28;20036;-82
2024/02/24 00:18:14;;;;;;;16.77;9.50;;;;;;;1.85;100.00;99419.41;5055404;28;20513;-81
2024/02/24 00:20:39;;;;;;;17.73;9.73;;;;;;;1.82;100.00;99424.88;5054842;28;20112;-81
2024/02/24 00:23:05;;;;;;;21.25;10.07;;;;;;;1.82;100.00;99424.88;5054737;28;20037;-81
2024/02/24 00:25:30;;;;;;;16.50;10.10;;;;;;;1.85;100.00;99430.75;5053668;28;20079;-83
2024/02/24 00:27:55;;;;;;;13.95;8.50;;;;;;;1.84;100.00;99431.69;5054831;28;20368;-81
2024/02/24 00:30:21;;;;;;;14.52;9.48;;;;;;;1.83;100.00;99430.00;5054985;28;20032;-83
2024/02/24 00:32:46;;;;;;;12.52;8.63;;;;;;;1.87;100.00;99423.56;5054813;28;20078;-83
2024/02/24 00:35:12;;;;;;;16.58;8.68;;;;;;;1.83;100.00;99422.13;5054297;28;20032;-84
2024/02/24 00:37:37;;;;;;;13.63;7.60;;;;;;;1.85;100.00;99422.88;5053298;28;20068;-81
2024/02/24 00:40:03;;;;;;;12.82;7.88;;;;;;;1.82;100.00;99424.88;5053036;28;20402;-81
2024/02/24 00:42:28;;;;;;;11.65;6.60;;;;;;;1.86;100.00;99423.69;5053218;28;20037;-81
2024/02/24 00:44:54;;;;;;;10.23;6.40;;;;;;;1.85;100.00;99432.50;5054059;28;20032;-81
2024/02/24 00:47:19;;;;;;;10.05;6.45;;;;;;;1.81;100.00;99431.06;5053826;28;20033;-80
2024/02/24 00:49:44;;;;;;;10.85;6.65;;;;;;;1.78;100.00;99434.78;5054266;28;20033;-80
2024/02/24 00:52:10;;;;;;;11.13;5.93;;;;;;;1.74;100.00;99434.16;5054356;28;20207;-81
2024/02/24 00:54:35;;;;;;;11.38;6.10;;;;;;;1.73;100.00;99443.00;5054220;28;20041;-82
2024/02/24 00:57:00;;;;;;;8.30;5.70;;;;;;;1.70;100.00;99442.38;5054247;28;20115;-82
2024/02/24 00:59:26;;;;;;;13.05;6.72;;;;;;;1.66;100.00;99447.03;5052630;28;20503;-83
2024/02/24 01:01:53;;;;;;;10.48;6.20;;;;;;;1.63;100.00;99438.53;5054763;28;20340;-82
2024/02/24 01:04:19;;;;;;;11.52;5.88;;;;;;;1.58;100.00;99441.53;5052877;28;20040;-82
2024/02/24 01:06:44;;;;;;;17.00;6.35;;;;;;;1.56;100.00;99438.19;5052206;28;20037;-82
2024/02/24 01:09:09;;;;;;;12.30;6.43;;;;;;;1.53;100.00;99441.03;5053539;28;20056;-81
2024/02/24 01:11:35;;;;;;;12.02;6.20;;;;;;;1.45;100.00;99439.00;5053898;28;20032;-81
2024/02/24 01:14:00;;;;;;;13.60;5.55;;;;;;;1.41;100.00;99437.56;5055011;28;20055;-82
2024/02/24 01:16:26;;;;;;;9.98;5.70;;;;;;;1.39;100.00;99437.66;5052476;28;20090;-81
2024/02/24 01:18:51;;;;;;;15.18;5.32;;;;;;;1.39;100.00;99437.66;5052107;28;20033;-80
2024/02/24 01:21:17;;;;;;;12.57;5.82;;;;;;;1.33;100.00;99435.50;5053048;28;20087;-81
2024/02/24 01:23:42;;;;;;;11.15;6.28;;;;;;;1.29;100.00;99436.69;5053797;28;20415;-81
2024/02/24 01:26:07;;;;;;;11.32;5.75;;;;;;;1.25;100.00;99440.47;5053888;28;20029;-81
2024/02/24 01:28:36;;;;;;;10.75;5.50;;;;;;;1.20;100.00;99446.06;5053908;28;20037;-81
2024/02/24 01:31:02;;;;;;;8.45;5.20;;;;;;;1.16;100.00;99446.41;5052808;28;20437;-82
2024/02/24 01:33:30;;;;;;;11.05;5.75;;;;;;;1.16;100.00;99457.69;5053663;28;20061;-81
2024/02/24 01:35:56;;;;;;;9.45;5.28;;;;;;;1.13;100.00;99454.47;5051972;28;20033;-81
2024/02/24 01:38:21;;;;;;;11.23;5.53;;;;;;;1.07;100.00;99457.56;5052534;28;20113;-81
2024/02/24 01:40:47;;;;;;;13.23;6.40;;;;;;;1.02;100.00;99453.47;5052604;28;20064;-80
2024/02/24 01:43:26;;;;;;;13.38;6.13;;;;;;;1.08;100.00;99456.63;5053001;28;20474;-81
2024/02/24 01:45:53;;;;;;;12.60;6.22;;;;;;;1.07;100.00;99462.78;5052585;28;20036;-82
2024/02/24 01:48:19;;;;;;;11.38;6.80;;;;;;;1.07;100.00;99461.00;5053353;28;20079;-85
2024/02/24 01:50:51;;;;;;;11.02;6.50;;;;;;;1.10;100.00;99459.94;5051879;28;20029;-82
2024/02/24 01:53:18;;;;;;;14.30;6.88;;;;;;;1.16;100.00;99462.94;5053300;28;20124;-82
2024/02/24 01:55:44;;;;;;;13.32;7.70;;;;;;;1.23;100.00;99463.34;5053105;28;20047;-82
2024/02/24 01:58:12;;;;;;;13.85;7.93;;;;;;;1.30;100.00;99464.56;5053062;28;20120;-81
2024/02/24 02:00:37;;;;;;;13.77;8.65;;;;;;;1.39;100.00;99463.06;5052972;28;20036;-82
2024/02/24 02:03:03;;;;;;;14.68;8.18;;;;;;;1.41;100.00;99469.84;5052498;28;20527;-82
2024/02/24 02:05:32;;;;;;;18.77;9.20;;;;;;;1.45;100.00;99462.59;5051520;28;20498;-81
2024/02/24 02:07:57;;;;;;;16.55;8.98;;;;;;;1.48;100.00;99470.22;5053190;28;20124;-82
2024/02/24 02:10:22;;;;;;;14.60;9.68;;;;;;;1.56;100.00;99462.59;5052680;28;20126;-84
2024/02/24 02:12:48;;;;;;;18.98;10.25;;;;;;;1.61;100.00;99459.63;5034274;28;20471;-82
2024/02/24 02:15:13;;;;;;;16.13;9.27;;;;;;;1.68;100.00;99463.47;5051163;28;20036;-82
2024/02/24 02:17:39;;;;;;;15.10;10.30;;;;;;;1.73;100.00;99468.38;5052369;28;20463;-82
2024/02/24 02:20:05;;;;;;;14.48;9.73;;;;;;;1.77;100.00;99473.25;5052503;28;20112;-82
2024/02/24 02:22:31;;;;;;;14.38;9.23;;;;;;;1.80;100.00;99468.75;5052715;28;20033;-82
2024/02/24 02:24:57;;;;;;;15.93;9.20;;;;;;;1.83;100.00;99479.00;5051063;28;20119;-82
2024/02/24 02:27:22;;;;;;;13.18;9.18;;;;;;;1.87;100.00;99480.47;5052638;28;20608;-82
2024/02/24 02:29:48;;;;;;;18.25;8.70;;;;;;;1.85;100.00;99484.97;5051817;28;20409;-82
2024/02/24 02:32:13;;;;;;;14.18;8.73;;;;;;;1.78;100.00;99484.63;5052264;28;20032;-82
2024/02/24 02:34:39;;;;;;;11.20;8.15;;;;;;;1.69;100.00;99482.69;5052284;28;20459;-82
2024/02/24 02:37:05;;;;;;;10.63;7.60;;;;;;;1.61;100.00;99480.63;5052114;28;20116;-81
2024/02/24 02:39:31;;;;;;;11.30;7.45;;;;;;;1.50;100.00;99473.56;5050733;28;20033;-81
2024/02/24 02:41:56;;;;;;;11.02;7.80;;;;;;;1.43;100.00;99479.38;5051720;28;20497;-81
2024/02/24 02:44:23;;;;;;;14.13;8.00;;;;;;;1.39;100.00;99482.22;5051925;28;20463;-81
2024/02/24 02:46:49;;;;;;;18.35;8.18;;;;;;;1.35;100.00;99469.47;5052229;28;20039;-81
2024/02/24 02:49:16;;;;;;;14.38;8.45;;;;;;;1.30;100.00;99471.56;5052149;28;20029;-81
2024/02/24 02:51:41;;;;;;;18.33;7.90;;;;;;;1.24;100.00;99475.50;5050490;28;20033;-82
2024/02/24 02:54:06;;;;;;;13.07;7.18;;;;;;;1.22;100.00;99467.75;5033991;28;20037;-82
2024/02/24 02:56:32;;;;;;;11.80;7.93;;;;;;;1.24;100.00;99475.50;5052159;28;20037;-82
2024/02/24 02:58:58;;;;;;;13.30;8.55;;;;;;;1.21;100.00;99470.50;5050841;28;20067;-81
2024/02/24 03:01:23;;;;;;;13.23;7.97;;;;;;;1.14;100.00;99472.72;5052532;28;20033;-82
2024/02/24 03:03:49;;;;;;;13.82;7.43;;;;;;;1.11;100.00;99469.50;5051970;28;20397;-82
2024/02/24 03:06:15;;;;;;;16.55;7.82;;;;;;;1.05;100.00;99471.59;5052380;28;20128;-81
2024/02/24 03:08:40;;;;;;;14.82;8.25;;;;;;;1.02;100.00;99473.59;5051964;28;20320;-82
2024/02/24 03:11:18;;;;;;;23.27;8.43;;;;;;;1.09;100.00;99474.84;5051687;28;20486;-82
2024/02/24 03:13:44;;;;;;;23.75;8.52;;;;;;;1.14;100.00;99477.94;5051609;28;20025;-82
2024/02/24 03:16:10;;;;;;;14.88;8.20;;;;;;;1.18;100.00;99478.56;5033745;28;20029;-82
2024/02/24 03:18:35;;;;;;;17.73;8.30;;;;;;;1.14;100.00;99470.09;5050267;28;20029;-82
2024/02/24 03:21:00;;;;;;;13.82;7.85;;;;;;;1.09;100.00;99468.75;5051836;28;20028;-82
2024/02/24 03:23:26;;;;;;;14.40;8.07;;;;;;;1.11;100.00;99472.94;5051834;28;20033;-82
2024/02/24 03:25:51;;;;;;;17.00;8.68;;;;;;;1.07;100.00;99473.28;5050681;28;20043;-82
2024/02/24 03:28:17;;;;;;;13.55;8.68;;;;;;;1.04;100.00;99472.53;5052248;28;20029;-82
2024/02/24 03:30:43;;;;;;;17.35;8.07;;;;;;;1.02;100.00;99484.91;5055560;28;20025;-83
2024/02/24 03:33:08;;;;;;;17.98;8.65;;;;;;;1.05;100.00;99470.78;5055385;28;20017;-81
2024/02/24 03:35:34;;;;;;;12.93;7.25;;;;;;;0.99;100.00;99482.53;5054083;28;20429;-85
2024/02/24 03:37:59;;;;;;;17.35;7.78;;;;;;;0.90;100.00;99477.94;5055343;28;20029;-81
2024/02/24 03:40:25;;;;;;;14.63;7.72;;;;;;;0.81;100.00;99481.25;5053445;28;20075;-81
2024/02/24 03:42:50;;;;;;;13.25;8.23;;;;;;;0.75;100.00;99476.41;5054758;28;20366;-81
2024/02/24 03:45:15;;;;;;;16.55;8.05;;;;;;;0.70;100.00;99484.59;5055525;28;20087;-81
2024/02/24 03:47:42;;;;;;;14.80;8.10;;;;;;;0.66;100.00;99489.22;5055002;28;20084;-81
2024/02/24 03:50:07;;;;;;;23.85;9.48;;;;;;;0.63;100.00;99486.00;5055584;28;20399;-81
2024/02/24 03:52:33;;;;;;;17.77;7.55;;;;;;;0.58;100.00;99480.25;5054898;28;20040;-81
2024/02/24 03:54:58;;;;;;;18.08;8.77;;;;;;;0.54;100.00;99477.00;5054966;28;20065;-81
2024/02/24 03:57:23;;;;;;;17.60;8.05;;;;;;;0.52;100.00;99482.34;5054700;28;20037;-81
2024/02/24 03:59:49;;;;;;;15.88;9.43;;;;;;;0.52;100.00;99487.59;5053772;28;20037;-82
2024/02/24 04:02:14;;;;;;;16.50;9.07;;;;;;;0.56;100.00;99485.59;5055039;28;20033;-81
2024/02/24 04:04:39;;;;;;;21.65;9.68;;;;;;;0.61;100.00;99491.34;5054577;28;20029;-83
2024/02/24 04:07:05;;;;;;;18.70;10.02;;;;;;;0.67;100.00;99492.66;5054897;28;20029;-81
2024/02/24 04:09:30;;;;;;;19.67;9.35;;;;;;;0.65;100.00;99487.53;5054931;28;20037;-82
2024/02/24 04:11:56;;;;;;;19.50;9.77;;;;;;;0.66;100.00;99493.63;5054588;28;20037;-82
2024/02/24 04:14:21;;;;;;;25.58;10.68;;;;;;;0.70;100.00;99497.69;5054436;28;20082;-81
2024/02/24 04:16:46;;;;;;;21.55;10.68;;;;;;;0.73;100.00;99502.72;5053911;28;20103;-81
2024/02/24 04:19:12;;;;;;;25.38;10.88;;;;;;;0.75;100.00;99497.34;5053260;28;20156;-82
2024/02/24 04:21:38;;;;;;;27.17;11.00;;;;;;;0.78;100.00;99502.41;5054636;28;20035;-82
2024/02/24 04:24:05;;;;;;;30.35;12.20;;;;;;;0.77;100.00;99504.16;5052939;28;20087;-82
2024/02/24 04:26:30;;;;;;;25.50;11.50;;;;;;;0.77;100.00;99506.78;5054189;28;20029;-81
2024/02/24 04:28:56;;;;;;;20.73;10.05;;;;;;;0.81;100.00;99515.28;5053275;28;20056;-81
2024/02/24 04:31:21;;;;;;;23.52;11.95;;;;;;;0.85;100.00;99519.31;5054507;28;20117;-81
2024/02/24 04:33:47;;;;;;;29.08;12.52;;;;;;;0.85;100.00;99514.09;5054411;28;20037;-81
2024/02/24 04:36:12;;;;;;;22.88;11.27;;;;;;;0.86;100.00;99518.41;5054252;28;20033;-81
2024/02/24 04:38:37;;;;;;;30.65;12.32;;;;;;;0.86;100.00;99521.00;5054179;28;20127;-81
2024/02/24 04:41:03;;;;;;;24.85;12.23;;;;;;;0.83;100.00;99524.69;5052305;28;20092;-82
2024/02/24 04:43:28;;;;;;;29.95;14.27;;;;;;;0.87;100.00;99517.47;5036752;28;20499;-81
2024/02/24 04:45:54;;;;;;;33.78;14.93;;;;;;;0.97;100.00;99520.25;5053718;28;20025;-82
2024/02/24 04:48:19;;;;;;;29.73;12.70;;;;;;;1.04;100.00;99537.19;5053846;28;20451;-81
2024/02/24 04:50:48;;;;;;;33.00;13.88;;;;;;;1.13;100.00;99531.28;5052596;28;20037;-81
2024/02/24 04:53:13;;;;;;;32.25;14.63;;;;;;;1.23;100.00;99536.72;5052375;28;20131;-82
2024/02/24 04:55:39;;;;;;;35.13;15.40;;;;;;;1.33;100.00;99526.38;5052620;28;20115;-81
2024/02/24 04:58:04;;;;;;;34.00;14.65;;;;;;;1.38;100.00;99537.38;5053891;28;20376;-82
2024/02/24 05:00:30;;;;;;;33.97;15.70;;;;;;;1.39;100.00;99539.91;5053550;28;20078;-82
2024/02/24 05:02:55;;;;;;;34.72;15.23;;;;;;;1.46;100.00;99540.25;5052242;28;20029;-82
2024/02/24 05:05:20;;;;;;;31.00;14.57;;;;;;;1.47;100.00;99538.50;5053140;28;20037;-82
2024/02/24 05:07:46;;;;;;;28.20;14.40;;;;;;;1.48;100.00;99530.53;5053036;28;20029;-82
2024/02/24 05:10:11;;;;;;;28.73;13.63;;;;;;;1.50;100.00;99533.03;5051916;28;20470;-81
2024/02/24 05:12:37;;;;;;;28.83;14.68;;;;;;;1.53;100.00;99531.00;5053969;28;20045;-80
2024/02/24 05:15:02;;;;;;;31.95;14.95;;;;;;;1.54;100.00;99537.09;5053796;28;20112;-79
2024/02/24 05:17:28;;;;;;;22.25;13.00;;;;;;;1.55;100.00;99536.13;5053552;28;20120;-81
2024/02/24 05:19:53;;;;;;;25.85;13.10;;;;;;;1.59;100.00;99546.28;5053249;28;20048;-81
2024/02/24 05:22:18;;;;;;;24.23;12.55;;;;;;;1.59;100.00;99545.47;5053487;28;20116;-81
2024/02/24 05:24:48;;;;;;;28.02;13.23;;;;;;;1.65;100.00;99542.38;5053830;28;20079;-82
2024/02/24 05:27:13;;;;;;;27.63;13.32;;;;;;;1.65;100.00;99552.03;5052335;28;20033;-82
2024/02/24 05:29:45;;;;;;;23.90;13.07;;;;;;;1.67;100.00;99553.59;5051697;28;20475;-81
2024/02/24 05:32:13;;;;;;;28.42;14.60;;;;;;;1.63;100.00;99551.28;5053284;28;20077;-82
2024/02/24 05:34:39;;;;;;;27.80;13.68;;;;;;;1.59;100.00;99558.56;5053557;28;20171;-81
2024/02/24 05:37:04;;;;;;;23.75;13.15;;;;;;;1.54;100.00;99555.47;5053120;28;20079;-81
2024/02/24 05:39:30;;;;;;;26.42;14.23;;;;;;;1.60;100.00;99555.00;5051861;28;20431;-81
2024/02/24 05:41:56;;;;;;;23.52;13.45;;;;;;;1.58;100.00;99567.38;5053384;28;20393;-82
2024/02/24 05:44:21;;;;;;;29.92;14.93;;;;;;;1.61;100.00;99580.25;5054108;28;20043;-81
2024/02/24 05:46:47;;;;;;;28.25;14.27;;;;;;;1.66;100.00;99572.91;5053100;28;20108;-81
2024/02/24 05:49:12;;;;;;;31.33;15.57;;;;;;;1.71;100.00;99581.25;5051671;28;20028;-81
2024/02/24 05:51:39;;;;;;;31.60;14.30;;;;;;;1.72;100.00;99582.94;5053147;28;20029;-80
2024/02/24 05:54:04;;;;;;;27.40;14.73;;;;;;;1.68;100.00;99583.28;5052112;28;20037;-82
2024/02/24 05:56:30;;;;;;;24.85;14.30;;;;;;;1.57;100.00;99587.53;5053396;28;20040;-81
2024/02/24 05:58:55;;;;;;;28.85;15.88;;;;;;;1.53;100.00;99591.31;5051658;28;20096;-81
2024/02/24 06:01:24;;;;;;;27.25;16.02;;;;;;;1.52;100.00;99596.66;5053068;28;20478;-80
2024/02/24 06:03:49;;;;;;;33.60;16.35;;;;;;;1.50;100.00;99590.72;5052118;28;20386;-81
2024/02/24 06:06:14;;;;;;;36.38;17.60;;;;;;;1.56;100.00;99596.31;5053300;28;20084;-81
2024/02/24 06:08:40;;;;;;;30.23;16.17;;;;;;;1.64;100.00;99593.13;5052793;28;20386;-80
2024/02/24 06:11:06;;;;;;;33.13;16.75;;;;;;;1.73;100.00;99592.50;5052478;28;20032;-81
2024/02/24 06:13:31;;;;;;;29.45;16.40;;;;;;;1.76;100.00;99599.28;5052798;28;20499;-80
2024/02/24 06:15:56;;;;;;;33.45;16.52;;;;;;;1.77;100.00;99604.41;5051859;28;20037;-80
2024/02/24 06:18:23;;;;;;;32.20;16.73;;;;;;;1.73;100.00;99600.34;5053206;28;20124;-81
2024/02/24 06:20:49;;;;;;;29.98;15.73;;;;;;;1.69;100.00;99606.75;5053216;28;20098;-80
2024/02/24 06:23:14;;;;;;;34.85;16.50;;;;;;;1.65;100.00;99605.31;5059405;28;20471;-80
2024/02/24 06:25:39;;;;;;;27.35;14.82;;;;;;;1.60;100.00;99604.81;5056906;28;20386;-80
2024/02/24 06:28:10;;;;;;;30.42;15.73;;;;;;;1.55;100.00;99605.16;5054914;28;20514;-81
2024/02/24 06:30:35;;;;;;;27.92;14.73;;;;;;;1.54;100.00;99621.00;5052553;28;20099;-80
2024/02/24 06:33:01;;;;;;;35.05;16.10;;;;;;;1.50;100.00;99624.78;5053124;28;20033;-81
2024/02/24 06:35:26;;;;;;;24.88;14.02;;;;;;;1.41;100.00;99621.88;5052163;28;20044;-80
2024/02/24 06:37:52;;;;;;;28.80;15.50;;;;;;;1.32;100.00;99617.28;5051570;28;20045;-80
2024/02/24 06:40:17;;;;;;;31.70;16.23;;;;;;;1.31;100.00;99623.47;5052872;28;20048;-80
2024/02/24 06:42:42;;;;;;;31.75;16.25;;;;;;;1.33;100.00;99620.72;5053140;28;20032;-80
2024/02/24 06:45:08;;;;;;;29.23;15.90;;;;;;;1.31;100.00;99620.84;5053653;28;20040;-81
2024/02/24 06:47:33;;;;;;;31.30;16.33;;;;;;;1.30;100.00;99628.81;5053558;28;20033;-81
2024/02/24 06:49:59;;;;;;;29.80;16.17;;;;;;;1.27;100.00;99635.13;5053937;28;20037;-80
2024/02/24 06:52:24;;;;;;;29.70;16.00;;;;;;;1.25;100.00;99638.81;5054522;28;20036;-81
2024/02/24 06:54:51;;;;;;;29.42;16.48;;;;;;;1.31;100.00;99647.06;5053104;28;20033;-81
2024/02/24 06:57:16;;;;;;;34.95;18.20;;;;;;;1.39;100.00;99642.13;5052210;28;20037;-80
2024/02/24 06:59:44;;;;;;;30.60;14.88;;;;;;;1.46;100.00;99655.59;5052348;28;20125;-80
2024/02/24 07:02:09;;;;;;;35.97;16.30;;;;;;;1.48;100.00;99650.25;5051899;28;20146;-81
2024/02/24 07:04:35;;;;;;;32.38;16.17;;;;;;;1.53;100.00;99648.16;5054675;28;20411;-80
2024/02/24 07:07:00;;;;;;;33.85;15.90;;;;;;;1.53;100.00;99643.75;5056535;28;20033;-81
2024/02/24 07:09:26;;;;;;;31.73;16.17;;;;;;;1.58;100.00;99657.38;5054841;28;20033;-81
2024/02/24 07:11:51;;;;;;;34.75;16.52;;;;;;;1.65;100.00;99664.78;5054701;28;20040;-81
2024/02/24 07:14:16;;;;;;;26.05;15.10;;;;;;;1.72;100.00;99671.28;5054699;28;20037;-81
2024/02/24 07:16:42;;;;;;;28.42;14.85;;;;;;;1.76;100.00;99670.94;5056652;28;20052;-81
2024/02/24 07:19:08;;;;;;;28.60;14.82;;;;;;;1.81;100.00;99673.22;5056431;28;20029;-82
2024/02/24 07:21:33;;;;;;;28.85;15.77;;;;;;;1.87;100.00;99677.19;5055975;28;20427;-81
2024/02/24 07:23:58;;;;;;;27.52;15.55;;;;;;;1.94;100.00;99673.16;5054473;28;20546;-80
2024/02/24 07:26:24;;;;;;;31.02;15.75;;;;;;;2.04;100.00;99675.94;5055323;28;20029;-81
2024/02/24 07:28:49;;;;;;;30.35;14.23;;;;;;;2.10;100.00;99678.94;5055618;28;20112;-81
2024/02/24 07:31:15;;;;;;;27.75;13.52;;;;;;;2.17;100.00;99676.72;5054404;28;20075;-80
2024/02/24 07:33:40;;;;;;;29.80;13.70;;;;;;;2.21;100.00;99683.44;5054623;28;20061;-82
2024/02/24 07:36:06;;;;;;;24.00;14.18;;;;;;;2.25;100.00;99690.09;5055881;28;20463;-80
2024/02/24 07:38:32;;;;;;;21.02;12.57;;;;;;;2.28;100.00;99692.53;5055694;28;20029;-80
2024/02/24 07:40:57;;;;;;;22.25;12.32;;;;;;;2.34;100.00;99695.63;5055737;28;20048;-80
2024/02/24 07:43:23;;;;;;;21.70;11.75;;;;;;;2.41;100.00;99700.31;5055162;28;20090;-80
2024/02/24 07:45:48;;;;;;;20.98;12.25;;;;;;;2.52;100.00;99701.28;5053868;28;20036;-80
2024/02/24 07:48:14;;;;;;;20.10;11.68;;;;;;;2.65;100.00;99713.38;5055496;28;20106;-82
2024/02/24 07:50:39;;;;;;;19.30;11.85;;;;;;;2.77;100.00;99714.25;5053815;28;20041;-80
2024/02/24 07:53:07;;;;;;;23.40;10.85;;;;;;;2.83;100.00;99708.50;5055407;28;20451;-81
2024/02/24 07:55:32;;;;;;;16.05;9.52;;;;;;;2.91;100.00;99712.34;5053629;28;20451;-81
2024/02/24 07:57:58;;;;;;;15.88;8.88;;;;;;;2.98;100.00;99713.56;5054741;28;20106;-81
2024/02/24 08:00:24;;;;;;;13.43;8.18;;;;;;;3.06;100.00;99711.19;5054921;28;20088;-81
2024/02/24 08:02:49;;;;;;;9.63;6.88;;;;;;;3.07;100.00;99710.22;5054778;28;20029;-81
2024/02/24 08:05:14;;;;;;;9.52;7.05;;;;;;;3.15;100.00;99721.00;5054801;28;20467;-81
2024/02/24 08:07:40;;;;;;;10.65;7.45;;;;;;;3.20;100.00;99719.81;5054469;28;20056;-79
2024/02/24 08:10:06;;;;;;;9.30;7.38;;;;;;;3.26;100.00;99725.41;5055070;28;20140;-81
2024/02/24 08:12:31;;;;;;;12.88;7.40;;;;;;;3.30;100.00;99720.75;5053968;28;20537;-78
2024/02/24 08:14:56;;;;;;;9.25;6.82;;;;;;;3.40;100.00;99715.59;5053194;28;20045;-79
2024/02/24 08:17:22;;;;;;;9.90;7.20;;;;;;;3.42;100.00;99709.28;5055476;28;20032;-79
2024/02/24 08:19:47;;;;;;;11.70;6.93;;;;;;;3.43;100.00;99713.56;5055089;28;20447;-78
2024/02/24 08:22:21;;;;;;;10.77;7.38;;;;;;;3.49;100.00;99709.63;5055116;28;20124;-79
2024/02/24 08:24:47;;;;;;;11.32;7.75;;;;;;;3.59;100.00;99712.38;5055395;28;20059;-79
2024/02/24 08:27:12;;;;;;;10.23;7.55;;;;;;;3.73;100.00;99709.47;5055009;28;20464;-78
2024/02/24 08:29:37;;;;;;;10.57;7.50;;;;;;;3.92;100.00;99714.09;5054879;28;20029;-78
2024/02/24 08:32:03;;;;;;;8.48;7.05;;;;;;;4.00;100.00;99718.72;5053576;28;20036;-78
2024/02/24 08:34:28;;;;;;;10.98;7.55;;;;;;;3.94;100.00;99712.19;5054428;28;20029;-78
2024/02/24 08:36:54;;;;;;;11.25;7.53;;;;;;;3.91;100.00;99709.78;5054485;28;20487;-77
2024/02/24 08:39:19;;;;;;;11.10;8.43;;;;;;;3.92;100.00;99711.47;5054339;28;20062;-78
2024/02/24 08:41:47;;;;;;;13.05;9.15;;;;;;;3.86;100.00;99718.03;5055181;28;20429;-79
2024/02/24 08:44:12;;;;;;;11.35;8.50;;;;;;;3.88;100.00;99712.66;5055082;28;20033;-76
2024/02/24 08:46:38;;;;;;;12.50;7.93;;;;;;;3.87;100.00;99717.09;5054457;28;20028;-76
2024/02/24 08:49:03;;;;;;;11.10;7.72;;;;;;;3.87;100.00;99727.63;5054642;28;20031;-79
2024/02/24 08:51:28;;;;;;;13.25;8.68;;;;;;;3.89;100.00;99712.53;5052783;28;20036;-77
2024/02/24 08:53:54;;;;;;;9.10;7.50;;;;;;;3.96;100.00;99722.59;5054248;28;20029;-76
2024/02/24 08:56:24;;;;;;;10.63;7.80;;;;;;;3.88;100.00;99723.19;5053943;28;20421;-77
2024/02/24 08:58:50;;;;;;;13.40;7.75;;;;;;;3.88;100.00;99721.41;5054053;28;20443;-75
2024/02/24 09:01:18;;;;;;;11.80;6.97;;;;;;;3.84;100.00;99730.50;5054005;28;20109;-76
2024/02/24 09:03:44;;;;;;;9.55;6.05;;;;;;;3.84;100.00;99729.66;5053943;28;20040;-78
2024/02/24 09:06:10;;;;;;;7.55;5.68;;;;;;;3.88;100.00;99733.72;5054124;28;20029;-79
2024/02/24 09:08:37;;;;;;;8.45;5.50;;;;;;;3.87;100.00;99738.16;5053785;28;20036;-77
2024/02/24 09:11:03;;;;;;;9.15;5.85;;;;;;;3.92;100.00;99740.41;5053696;28;20035;-76
2024/02/24 09:13:28;;;;;;;11.05;5.93;;;;;;;3.88;100.00;99747.72;5053344;28;20029;-79
2024/02/24 09:15:53;;;;;;;7.63;5.95;;;;;;;3.84;100.00;99748.09;5053596;28;20493;-77
2024/02/24 09:18:19;;;;;;;9.48;6.10;;;;;;;3.83;100.00;99755.13;5054316;28;20044;-81
2024/02/24 09:20:47;;;;;;;8.30;5.60;;;;;;;3.83;100.00;99752.50;5054223;28;20041;-80
2024/02/24 09:23:12;;;;;;;10.45;5.32;;;;;;;3.77;100.00;99753.00;5053085;28;20033;-78
2024/02/24 09:25:38;;;;;;;8.45;6.03;;;;;;;3.73;100.00;99762.06;5053269;28;20075;-78
2024/02/24 09:28:03;;;;;;;13.43;6.20;;;;;;;3.71;100.00;99761.38;5053770;28;20032;-79
2024/02/24 09:30:29;;;;;;;8.10;5.68;;;;;;;3.66;100.00;99761.75;5051852;28;20391;-78
2024/02/24 09:32:56;;;;;;;5.97;5.32;;;;;;;3.65;100.00;99767.13;5053361;28;20045;-79
2024/02/24 09:35:22;;;;;;;9.50;5.70;;;;;;;3.65;100.00;99767.94;5053312;28;20032;-78
2024/02/24 09:37:47;;;;;;;7.97;5.80;;;;;;;3.62;100.00;99772.63;5053388;28;20037;-78
2024/02/24 09:40:14;;;;;;;8.45;5.18;;;;;;;3.62;100.00;99767.38;5052886;28;20044;-77
2024/02/24 09:42:42;;;;;;;8.13;5.07;;;;;;;3.58;100.00;99776.44;5052369;28;20036;-78
2024/02/24 09:45:12;;;;;;;8.07;4.60;;;;;;;3.60;100.00;99772.75;5053445;28;20044;-77
2024/02/24 09:47:43;;;;;;;5.30;4.68;;;;;;;3.59;100.00;99776.31;5051594;28;20115;-80
2024/02/24 09:50:10;;;;;;;8.32;4.65;;;;;;;3.59;100.00;99780.75;5053094;28;20060;-74
2024/02/24 09:52:35;;;;;;;7.60;4.93;;;;;;;3.58;100.00;99789.59;5052553;28;20116;-77
2024/02/24 09:55:03;;;;;;;8.65;5.10;;;;;;;3.59;100.00;99793.91;5035472;28;20368;-77
2024/02/24 09:57:32;;;;;;;8.52;4.70;;;;;;;3.60;100.00;99801.69;5051605;28;20043;-76
2024/02/24 09:59:58;;;;;;;7.82;4.53;;;;;;;3.65;100.00;99794.25;5053428;28;20075;-77
2024/02/24 10:02:23;;;;;;;5.90;3.90;;;;;;;3.65;100.00;99803.97;5053356;28;20064;-77
2024/02/24 10:04:50;;;;;;;4.75;3.47;;;;;;;3.67;100.00;99802.03;5052911;28;20052;-77
2024/02/24 10:07:17;;;;;;;7.15;3.92;;;;;;;3.74;100.00;99812.94;5052796;28;20029;-80
2024/02/24 10:09:42;;;;;;;3.42;3.13;;;;;;;3.78;100.00;99798.59;5053151;28;20468;-78
2024/02/24 10:12:08;;;;;;;5.93;3.35;;;;;;;3.89;100.00;99803.81;5051835;28;20060;-79
2024/02/24 10:14:34;;;;;;;3.50;3.20;;;;;;;3.99;100.00;99804.75;5035345;28;20032;-79
2024/02/24 10:17:00;;;;;;;5.60;3.90;;;;;;;4.10;100.00;99810.97;5053330;28;20083;-79
2024/02/24 10:19:30;;;;;;;7.22;3.17;;;;;;;4.13;100.00;99805.47;5053630;28;20367;-78
2024/02/24 10:22:05;;;;;;;3.15;2.78;;;;;;;4.11;100.00;99804.75;5053738;28;20037;-78
2024/02/24 10:24:31;;;;;;;4.53;3.20;;;;;;;4.17;100.00;99810.34;5053711;28;20037;-78
2024/02/24 10:26:57;;;;;;;5.50;3.47;;;;;;;4.14;100.00;99821.13;5053339;28;20037;-77
2024/02/24 10:29:30;;;;;;;4.65;3.50;;;;;;;4.13;100.00;99827.34;5052053;28;20454;-77
2024/02/24 10:31:59;;;;;;;6.80;3.20;;;;;;;4.05;100.00;99824.50;5051872;28;20033;-77
2024/02/24 10:34:25;;;;;;;4.38;3.50;;;;;;;4.08;100.00;99823.44;5052948;28;20474;-78
2024/02/24 10:36:51;;;;;;;4.85;3.30;;;;;;;4.08;100.00;99828.69;5053095;28;20126;-77
2024/02/24 10:39:18;;;;;;;4.05;3.10;;;;;;;4.09;100.00;99822.44;5053456;28;20536;-76
2024/02/24 10:41:45;;;;;;;4.28;2.80;;;;;;;4.10;100.00;99840.75;5052917;28;20491;-77
2024/02/24 10:44:11;;;;;;;3.45;3.08;;;;;;;4.15;100.00;99838.63;5051969;28;20130;-78
2024/02/24 10:46:37;;;;;;;3.35;3.05;;;;;;;4.19;100.00;99841.81;5051829;28;20033;-81
2024/02/24 10:49:03;;;;;;;6.10;3.35;;;;;;;4.20;100.00;99843.50;5051808;28;20087;-77
2024/02/24 10:51:29;;;;;;;4.28;3.20;;;;;;;4.17;100.00;99841.94;5051724;28;20070;-77
2024/02/24 10:53:59;;;;;;;6.55;3.00;;;;;;;4.13;100.00;99844.94;5052141;28;20092;-80
2024/02/24 10:56:25;;;;;;;5.38;3.45;;;;;;;4.13;100.00;99845.78;5051836;28;20035;-76
2024/02/24 10:58:51;;;;;;;5.50;3.22;;;;;;;4.12;100.00;99854.66;5051616;28;20120;-79
2024/02/24 11:01:18;;;;;;;4.88;3.38;;;;;;;4.10;100.00;99855.72;5050223;28;20068;-76
2024/02/24 11:03:44;;;;;;;6.93;3.88;;;;;;;4.13;100.00;99855.47;5051622;28;20454;-79
2024/02/24 11:06:12;;;;;;;4.28;3.72;;;;;;;4.14;100.00;99863.25;5050258;28;20532;-76
2024/02/24 11:08:44;;;;;;;7.70;3.60;;;;;;;4.19;100.00;99866.34;5051616;28;20037;-78
2024/02/24 11:11:11;;;;;;;13.02;3.95;;;;;;;4.27;100.00;99868.41;5051272;28;20101;-77
2024/02/24 11:13:42;;;;;;;5.90;3.90;;;;;;;4.33;100.00;99874.94;5050193;28;20374;-77
2024/02/24 11:16:10;;;;;;;3.95;3.33;;;;;;;4.33;100.00;99878.44;5051967;28;20052;-78
2024/02/24 11:18:47;;;;;;;5.25;4.40;;;;;;;4.38;100.00;99876.25;5051427;28;20036;-77